Time;durP1;ratioP1;P1;durP2;ratioP2;P2;SDS_P1;SDS_P2;PMS_P1;PMS_P2;Temp;Humidity;BMP_temperature;BMP_pressure;BME280_temperature;BME280_humidity;BME280_pressure;Samples;Min_cycle;Max_cycle;Signal;HPM_P1;HPM_P2
2021/09/28 00:00:25;;;;;;;7.93;4.45;;;;;;;17.90;57.86;100385.72;5089525;28;20054;-22
2021/09/28 00:02:51;;;;;;;6.80;4.43;;;;;;;17.68;59.03;100389.28;5089208;28;20472;-22
2021/09/28 00:05:16;;;;;;;7.53;4.40;;;;;;;17.48;59.45;100375.66;5089502;28;20046;-22
2021/09/28 00:07:42;;;;;;;11.68;4.60;;;;;;;17.51;59.90;100380.53;5089357;28;20036;-22
2021/09/28 00:10:07;;;;;;;7.95;4.57;;;;;;;17.64;59.65;100392.78;5089550;28;20032;-22
2021/09/28 00:12:33;;;;;;;6.75;3.92;;;;;;;17.76;59.44;100387.19;5089165;28;20039;-22
2021/09/28 00:14:59;;;;;;;7.28;3.95;;;;;;;17.88;58.94;100382.47;5089301;28;20028;-22
2021/09/28 00:17:24;;;;;;;9.05;4.47;;;;;;;17.80;59.21;100393.69;5089197;28;20032;-22
2021/09/28 00:19:49;;;;;;;9.52;4.85;;;;;;;17.76;59.27;100384.50;5089368;28;20024;-23
2021/09/28 00:22:15;;;;;;;10.88;4.90;;;;;;;17.93;57.83;100385.19;5089423;28;20028;-22
2021/09/28 00:24:40;;;;;;;9.10;4.93;;;;;;;17.68;58.89;100394.69;5088904;28;20031;-22
2021/09/28 00:27:06;;;;;;;9.68;4.72;;;;;;;18.05;57.95;100391.19;5089180;28;20036;-22
2021/09/28 00:29:31;;;;;;;6.50;4.32;;;;;;;18.00;58.16;100388.47;5087881;28;20032;-22
2021/09/28 00:31:57;;;;;;;8.45;4.72;;;;;;;18.00;58.32;100391.19;5089055;28;20048;-22
2021/09/28 00:34:22;;;;;;;10.55;4.85;;;;;;;17.92;58.38;100397.06;5089081;28;20036;-22
2021/09/28 00:36:48;;;;;;;11.43;4.80;;;;;;;17.96;58.29;100383.84;5088657;28;20415;-22
2021/09/28 00:39:13;;;;;;;7.82;4.65;;;;;;;17.97;57.69;100394.38;5088855;28;20093;-22
2021/09/28 00:41:39;;;;;;;7.72;4.68;;;;;;;18.19;57.14;100386.16;5089150;28;20032;-22
2021/09/28 00:44:05;;;;;;;8.50;4.75;;;;;;;17.99;57.66;100396.81;5089194;28;20035;-22
2021/09/28 00:46:30;;;;;;;7.47;4.60;;;;;;;17.56;59.30;100390.53;5089018;28;20036;-22
2021/09/28 00:48:56;;;;;;;7.20;4.57;;;;;;;17.12;60.44;100387.97;5088684;28;20024;-22
2021/09/28 00:51:21;;;;;;;9.23;5.15;;;;;;;16.86;61.05;100391.22;5088964;28;20032;-22
2021/09/28 00:53:48;;;;;;;9.25;5.60;;;;;;;16.64;61.82;100387.72;5070501;28;20055;-22
2021/09/28 00:56:15;;;;;;;11.00;5.47;;;;;;;16.70;61.69;100375.94;5070988;28;20039;-22
2021/09/28 00:58:40;;;;;;;8.38;6.13;;;;;;;16.51;62.06;100345.00;5088636;28;20089;-22
2021/09/28 01:01:06;;;;;;;9.80;5.13;;;;;;;16.67;61.96;100371.03;5054113;28;20024;-22
2021/09/28 01:03:32;;;;;;;9.40;5.72;;;;;;;16.59;61.93;100368.78;5070724;28;20024;-22
2021/09/28 01:05:58;;;;;;;10.43;6.68;;;;;;;16.59;61.33;100366.09;5070707;28;20031;-22
2021/09/28 01:08:23;;;;;;;10.65;6.53;;;;;;;16.55;60.92;100354.19;5088720;28;20052;-22
2021/09/28 01:10:48;;;;;;;10.63;6.72;;;;;;;16.56;60.88;100370.09;5092650;28;20081;-22
2021/09/28 01:13:14;;;;;;;14.98;7.20;;;;;;;16.78;60.20;100372.78;5074610;28;20468;-22
2021/09/28 01:16:00;;;;;;;10.95;6.35;;;;;;;16.91;59.16;100351.94;5092622;28;20028;-22
2021/09/28 01:18:30;;;;;;;10.38;6.70;;;;;;;16.81;58.13;100347.25;5076765;28;20054;-22
2021/09/28 01:20:55;;;;;;;9.73;6.63;;;;;;;16.75;57.59;100351.72;5092194;28;20036;-22
2021/09/28 01:23:21;;;;;;;12.10;7.07;;;;;;;16.83;56.94;100351.31;5092642;28;20495;-22
2021/09/28 01:25:46;;;;;;;9.63;6.93;;;;;;;16.73;57.81;100343.09;5092521;28;20032;-22
2021/09/28 01:28:12;;;;;;;11.60;7.32;;;;;;;16.65;57.54;100339.00;5092160;28;20502;-23
2021/09/28 01:30:37;;;;;;;12.38;7.88;;;;;;;16.74;58.09;100339.34;5092337;28;20111;-22
2021/09/28 01:33:03;;;;;;;11.70;7.63;;;;;;;16.77;57.93;100338.81;5092420;28;20032;-23
2021/09/28 01:35:29;;;;;;;10.00;7.40;;;;;;;16.87;57.24;100328.19;5090899;28;20039;-23
2021/09/28 01:37:54;;;;;;;11.88;7.78;;;;;;;16.90;57.07;100345.75;5092191;28;20431;-22
2021/09/28 01:40:20;;;;;;;11.10;7.47;;;;;;;16.59;57.37;100336.47;5092176;28;20027;-22
2021/09/28 01:42:45;;;;;;;11.60;7.35;;;;;;;16.77;57.80;100344.22;5091777;28;20032;-22
2021/09/28 01:45:11;;;;;;;12.63;7.35;;;;;;;16.70;57.60;100329.34;5091993;28;20039;-23
2021/09/28 01:47:36;;;;;;;10.23;7.07;;;;;;;17.08;56.75;100344.59;5073788;28;20031;-22
2021/09/28 01:50:02;;;;;;;17.13;7.68;;;;;;;17.19;55.32;100334.69;5091700;28;20028;-23
2021/09/28 01:52:27;;;;;;;12.75;7.13;;;;;;;17.04;55.68;100322.72;5091578;28;20028;-22
2021/09/28 01:54:53;;;;;;;10.95;6.72;;;;;;;17.40;54.97;100341.06;5091490;28;20044;-23
2021/09/28 01:57:18;;;;;;;10.40;6.43;;;;;;;17.03;55.06;100337.25;5091785;28;20454;-23
2021/09/28 01:59:44;;;;;;;9.93;6.60;;;;;;;16.72;56.09;100319.94;5091702;28;20032;-22
2021/09/28 02:02:09;;;;;;;10.77;7.22;;;;;;;16.64;56.41;100333.84;5091749;28;20027;-22
2021/09/28 02:04:35;;;;;;;9.70;6.55;;;;;;;16.40;57.16;100327.91;5091609;28;20040;-22
2021/09/28 02:07:00;;;;;;;11.90;7.15;;;;;;;16.98;55.49;100334.50;5092187;28;20036;-22
2021/09/28 02:09:26;;;;;;;11.55;6.65;;;;;;;17.32;54.54;100334.25;5091617;28;20040;-22
2021/09/28 02:11:51;;;;;;;10.07;6.90;;;;;;;17.14;55.51;100345.41;5091580;28;20024;-22
2021/09/28 02:14:17;;;;;;;11.32;6.63;;;;;;;16.72;56.93;100335.28;5091462;28;20511;-23
2021/09/28 02:16:44;;;;;;;12.75;7.50;;;;;;;17.16;55.06;100360.28;5091257;28;20431;-22
2021/09/28 02:19:10;;;;;;;17.52;9.00;;;;;;;17.12;56.14;100356.47;5091407;28;20020;-22
2021/09/28 02:21:35;;;;;;;13.90;8.15;;;;;;;17.30;55.63;100357.16;5072760;28;20457;-22
2021/09/28 02:24:01;;;;;;;13.63;8.30;;;;;;;17.20;54.99;100357.88;5091497;28;20073;-22
2021/09/28 02:26:26;;;;;;;14.18;8.65;;;;;;;17.21;55.83;100360.31;5073503;28;20036;-22
2021/09/28 02:28:52;;;;;;;12.18;7.85;;;;;;;17.22;55.67;100340.41;5090950;28;20028;-22
2021/09/28 02:31:17;;;;;;;13.00;7.00;;;;;;;17.11;55.48;100345.94;5091137;28;20093;-22
2021/09/28 02:33:43;;;;;;;11.77;7.13;;;;;;;16.93;55.01;100320.97;5091123;28;20035;-22
2021/09/28 02:36:08;;;;;;;10.63;6.13;;;;;;;17.27;54.52;100345.81;5091159;28;20028;-22
2021/09/28 02:38:33;;;;;;;10.32;6.68;;;;;;;17.34;53.51;100337.50;5091044;28;20035;-21
2021/09/28 02:40:59;;;;;;;11.60;7.10;;;;;;;17.73;52.72;100355.34;5091029;28;20038;-22
2021/09/28 02:43:24;;;;;;;10.50;6.65;;;;;;;17.87;52.40;100357.34;5091056;28;20393;-22
2021/09/28 02:45:50;;;;;;;11.00;6.93;;;;;;;17.59;53.09;100338.78;5090850;28;20042;-23
2021/09/28 02:48:16;;;;;;;13.27;6.70;;;;;;;17.38;54.12;100341.31;5090770;28;20043;-22
2021/09/28 02:50:42;;;;;;;10.25;6.78;;;;;;;17.11;55.26;100352.16;5090658;28;20468;-22
2021/09/28 02:53:07;;;;;;;10.80;6.47;;;;;;;16.99;56.40;100343.41;5090555;28;20484;-22
2021/09/28 02:55:33;;;;;;;9.65;6.72;;;;;;;17.00;55.57;100347.72;5090919;28;20487;-22
2021/09/28 02:57:58;;;;;;;12.02;7.20;;;;;;;16.64;56.90;100339.25;5090597;28;20035;-22
2021/09/28 03:00:24;;;;;;;12.30;7.32;;;;;;;16.51;56.57;100342.31;5090579;28;20036;-22
2021/09/28 03:02:49;;;;;;;11.05;6.38;;;;;;;16.56;57.34;100342.38;5090300;28;20020;-22
2021/09/28 03:05:15;;;;;;;10.00;6.75;;;;;;;16.50;57.27;100349.56;5090690;28;20487;-22
2021/09/28 03:07:40;;;;;;;12.02;6.90;;;;;;;16.68;57.11;100345.75;5090542;28;20024;-22
2021/09/28 03:10:06;;;;;;;17.27;7.25;;;;;;;17.05;55.79;100353.97;5090527;28;20495;-22
2021/09/28 03:12:32;;;;;;;9.75;6.60;;;;;;;17.43;55.31;100359.44;5090369;28;20028;-22
2021/09/28 03:14:58;;;;;;;12.70;6.63;;;;;;;17.24;55.62;100361.69;5090266;28;20518;-22
2021/09/28 03:17:25;;;;;;;14.90;6.78;;;;;;;17.05;56.75;100361.25;5090388;28;20039;-22
2021/09/28 03:19:51;;;;;;;14.32;7.18;;;;;;;16.77;57.25;100343.41;5090323;28;20106;-22
2021/09/28 03:22:17;;;;;;;16.17;7.63;;;;;;;16.64;58.50;100344.63;5090444;28;20475;-22
2021/09/28 03:24:43;;;;;;;10.70;6.43;;;;;;;16.12;59.80;100323.53;5090355;28;20026;-22
2021/09/28 03:27:08;;;;;;;13.55;7.35;;;;;;;16.20;60.06;100350.84;5090067;28;20040;-22
2021/09/28 03:29:34;;;;;;;12.80;6.80;;;;;;;16.17;60.02;100334.38;5090137;28;20032;-22
2021/09/28 03:31:59;;;;;;;10.70;7.35;;;;;;;15.95;61.06;100331.66;5089051;28;20420;-22
2021/09/28 03:34:25;;;;;;;12.38;7.78;;;;;;;15.98;60.99;100337.34;5089466;28;20044;-22
2021/09/28 03:36:50;;;;;;;11.52;7.10;;;;;;;16.16;60.54;100332.72;5089715;28;20044;-22
2021/09/28 03:39:16;;;;;;;9.73;7.30;;;;;;;15.98;60.86;100331.16;5089048;28;20024;-22
2021/09/28 03:41:41;;;;;;;11.88;6.63;;;;;;;15.85;60.98;100321.56;5089193;28;20484;-22
2021/09/28 03:44:07;;;;;;;10.15;6.85;;;;;;;16.15;60.53;100347.25;5089891;28;20020;-22
2021/09/28 03:46:32;;;;;;;13.15;6.75;;;;;;;16.12;60.64;100347.75;5089955;28;20031;-22
2021/09/28 03:48:58;;;;;;;11.32;6.50;;;;;;;16.12;60.86;100347.75;5089622;28;20896;-21
2021/09/28 03:51:23;;;;;;;11.40;7.20;;;;;;;16.12;61.14;100353.13;5089786;28;20032;-22
2021/09/28 03:53:51;;;;;;;13.90;6.90;;;;;;;16.27;60.67;100358.72;5089554;28;20056;-22
2021/09/28 03:56:21;;;;;;;11.52;6.45;;;;;;;16.02;61.03;100333.09;5089345;28;20042;-22
2021/09/28 03:58:46;;;;;;;10.30;6.28;;;;;;;16.23;60.78;100353.00;5089304;28;20032;-22
2021/09/28 04:01:12;;;;;;;10.95;6.57;;;;;;;16.39;60.29;100367.47;5089318;28;20560;-21
2021/09/28 04:03:40;;;;;;;11.40;6.40;;;;;;;16.54;59.84;100360.66;5089582;28;20039;-22
2021/09/28 04:06:06;;;;;;;10.18;6.18;;;;;;;16.19;60.60;100359.16;5089354;28;20435;-22
2021/09/28 04:08:31;;;;;;;9.90;5.97;;;;;;;16.29;60.50;100366.53;5089408;28;20032;-22
2021/09/28 04:10:57;;;;;;;11.23;6.68;;;;;;;16.40;60.05;100376.38;5089055;28;20028;-22
2021/09/28 04:13:22;;;;;;;14.38;7.53;;;;;;;16.41;60.32;100367.25;5089460;28;20035;-22
2021/09/28 04:15:48;;;;;;;11.45;6.63;;;;;;;16.28;60.44;100368.41;5089405;28;20032;-22
2021/09/28 04:18:14;;;;;;;12.18;6.53;;;;;;;16.59;59.68;100368.78;5089369;28;20560;-22
2021/09/28 04:20:41;;;;;;;15.13;6.40;;;;;;;16.66;59.03;100385.56;5088972;28;20032;-21
2021/09/28 04:23:07;;;;;;;11.03;6.37;;;;;;;16.84;58.19;100376.41;5089331;28;20031;-22
2021/09/28 04:25:33;;;;;;;11.73;6.10;;;;;;;16.60;59.28;100373.13;5071318;28;20024;-22
2021/09/28 04:27:59;;;;;;;11.38;6.57;;;;;;;17.14;57.82;100397.47;5089212;28;20030;-23
2021/09/28 04:30:24;;;;;;;11.98;6.53;;;;;;;17.06;57.14;100362.84;5088877;28;20023;-22
2021/09/28 04:32:50;;;;;;;12.85;6.82;;;;;;;17.51;56.47;100391.31;5088720;28;20036;-22
2021/09/28 04:35:15;;;;;;;12.80;6.72;;;;;;;17.92;55.34;100396.22;5089096;28;20476;-22
2021/09/28 04:37:41;;;;;;;13.63;6.32;;;;;;;17.78;55.66;100380.47;5089057;28;20028;-22
2021/09/28 04:40:07;;;;;;;14.48;6.63;;;;;;;17.76;56.02;100388.00;5088961;28;20497;-22
2021/09/28 04:42:32;;;;;;;12.65;6.63;;;;;;;17.48;57.29;100397.22;5089275;28;20040;-22
2021/09/28 04:44:58;;;;;;;10.55;6.38;;;;;;;17.32;58.06;100401.66;5088962;28;20107;-22
2021/09/28 04:47:23;;;;;;;13.93;6.05;;;;;;;17.38;57.89;100402.50;5089023;28;20031;-22
2021/09/28 04:49:49;;;;;;;12.85;6.15;;;;;;;17.43;57.84;100389.09;5088928;28;20024;-22
2021/09/28 04:52:14;;;;;;;9.93;6.28;;;;;;;17.22;58.33;100398.84;5088880;28;20032;-22
2021/09/28 04:54:40;;;;;;;13.27;6.30;;;;;;;17.14;58.91;100393.94;5088831;28;20562;-22
2021/09/28 04:57:05;;;;;;;10.32;5.93;;;;;;;17.03;59.20;100398.41;5088962;28;20461;-22
2021/09/28 04:59:32;;;;;;;13.35;8.82;;;;;;;16.86;59.62;100395.81;5088729;28;20028;-22
2021/09/28 05:01:58;;;;;;;15.23;8.55;;;;;;;16.65;60.52;100383.94;5088876;28;20024;-22
2021/09/28 05:04:24;;;;;;;24.25;9.75;;;;;;;16.69;60.42;100379.66;5088766;28;20036;-22
2021/09/28 05:06:49;;;;;;;34.97;21.88;;;;;;;16.87;59.61;100387.44;5088559;28;20028;-21
2021/09/28 05:09:14;;;;;;;40.33;21.02;;;;;;;16.96;59.74;100405.84;5088622;28;20028;-22
2021/09/28 05:11:40;;;;;;;26.40;15.82;;;;;;;17.30;58.39;100397.59;5088765;28;20032;-22
2021/09/28 05:14:05;;;;;;;18.63;10.98;;;;;;;17.55;57.41;100407.78;5088562;28;20032;-22
2021/09/28 05:16:31;;;;;;;17.13;11.00;;;;;;;17.39;57.96;100394.19;5088771;28;20028;-23
2021/09/28 05:18:57;;;;;;;19.95;10.63;;;;;;;17.51;57.59;100406.66;5088578;28;20036;-22
2021/09/28 05:21:22;;;;;;;17.42;10.55;;;;;;;17.46;57.92;100405.56;5088700;28;20028;-22
2021/09/28 05:23:48;;;;;;;16.73;10.07;;;;;;;17.26;58.52;100390.03;5088533;28;20619;-23
2021/09/28 05:26:13;;;;;;;14.45;8.40;;;;;;;17.01;59.40;100397.84;5088596;28;20035;-22
2021/09/28 05:28:39;;;;;;;19.55;10.43;;;;;;;16.99;59.67;100406.16;5088253;28;20032;-22
2021/09/28 05:31:05;;;;;;;19.60;10.10;;;;;;;17.21;59.16;100403.44;5088681;28;20085;-22
2021/09/28 05:33:30;;;;;;;19.15;10.25;;;;;;;17.07;59.88;100413.00;5088809;28;20075;-22
2021/09/28 05:35:56;;;;;;;37.15;16.52;;;;;;;17.07;59.77;100413.00;5088507;28;20480;-22
2021/09/28 05:38:22;;;;;;;26.45;16.38;;;;;;;17.52;57.77;100402.91;5088323;28;20051;-22
2021/09/28 05:40:47;;;;;;;24.55;14.82;;;;;;;18.06;56.30;100433.31;5088127;28;20483;-22
2021/09/28 05:43:13;;;;;;;23.02;14.27;;;;;;;18.10;55.67;100406.59;5088391;28;20036;-22
2021/09/28 05:45:38;;;;;;;18.60;10.30;;;;;;;18.15;57.03;100424.72;5088373;28;20039;-22
2021/09/28 05:48:04;;;;;;;23.50;12.02;;;;;;;18.35;56.30;100446.44;5088361;28;20051;-22
2021/09/28 05:50:29;;;;;;;20.67;10.93;;;;;;;18.23;56.52;100435.03;5088246;28;20032;-22
2021/09/28 05:52:56;;;;;;;23.27;10.52;;;;;;;18.34;56.76;100447.50;5087617;28;20035;-23
2021/09/28 05:55:22;;;;;;;14.88;9.57;;;;;;;18.17;58.11;100457.69;5070530;28;20070;-22
2021/09/28 05:57:47;;;;;;;30.38;11.32;;;;;;;18.63;56.34;100452.53;5091871;28;20385;-22
2021/09/28 06:00:15;;;;;;;14.73;8.90;;;;;;;18.67;56.01;100457.16;5091755;28;20089;-22
2021/09/28 06:02:42;;;;;;;23.85;9.25;;;;;;;18.67;56.16;100451.75;5091627;28;20392;-21
2021/09/28 06:05:07;;;;;;;14.82;7.65;;;;;;;18.80;55.33;100444.28;5091779;28;20036;-22
2021/09/28 06:07:33;;;;;;;15.73;8.05;;;;;;;18.24;57.35;100442.06;5073552;28;20024;-23
2021/09/28 06:09:59;;;;;;;10.85;7.97;;;;;;;18.27;58.30;100457.75;5091632;28;20020;-22
2021/09/28 06:12:24;;;;;;;13.50;8.98;;;;;;;18.03;59.03;100452.72;5091463;28;20032;-22
2021/09/28 06:14:50;;;;;;;14.68;8.18;;;;;;;18.10;59.96;100463.28;5091568;28;20054;-22
2021/09/28 06:17:15;;;;;;;36.35;10.10;;;;;;;18.24;59.41;100461.75;5091925;28;20063;-22
2021/09/28 06:19:41;;;;;;;13.98;8.48;;;;;;;18.38;57.75;100437.81;5091869;28;20036;-22
2021/09/28 06:22:06;;;;;;;13.70;9.20;;;;;;;19.02;56.24;100457.56;5073072;28;20092;-22
2021/09/28 06:24:32;;;;;;;16.67;9.45;;;;;;;18.90;56.42;100443.47;5091796;28;20107;-22
2021/09/28 06:27:02;;;;;;;13.90;8.95;;;;;;;18.80;57.60;100455.88;5091005;28;20032;-22
2021/09/28 06:29:28;;;;;;;18.02;9.13;;;;;;;19.04;56.89;100458.13;5091358;28;20028;-22
2021/09/28 06:31:54;;;;;;;13.02;8.50;;;;;;;19.55;54.98;100466.34;5091391;28;20040;-22
2021/09/28 06:34:19;;;;;;;15.65;9.55;;;;;;;19.60;54.97;100463.66;5073193;28;20510;-23
2021/09/28 06:36:44;;;;;;;13.15;8.05;;;;;;;19.67;54.40;100464.19;5090944;28;20089;-22
2021/09/28 06:39:10;;;;;;;12.98;8.27;;;;;;;19.68;54.10;100457.69;5091172;28;20035;-22
2021/09/28 06:41:35;;;;;;;12.15;7.55;;;;;;;19.36;55.16;100473.34;5090920;28;20031;-22
2021/09/28 06:44:01;;;;;;;33.72;20.23;;;;;;;19.06;56.54;100477.59;5072906;28;20028;-23
2021/09/28 06:46:27;;;;;;;12.57;7.93;;;;;;;19.12;56.67;100481.94;5091018;28;20431;-22
2021/09/28 06:48:52;;;;;;;11.80;6.80;;;;;;;19.34;55.29;100465.50;5090717;28;20032;-22
2021/09/28 06:51:17;;;;;;;11.15;6.60;;;;;;;19.51;54.82;100486.09;5090616;28;20027;-22
2021/09/28 06:53:44;;;;;;;12.32;7.05;;;;;;;19.07;56.53;100492.75;5090654;28;20052;-22
2021/09/28 06:56:12;;;;;;;13.55;7.65;;;;;;;19.31;55.71;100494.97;5090614;28;20047;-22
2021/09/28 06:58:38;;;;;;;9.52;6.47;;;;;;;19.67;54.99;100485.81;5090463;28;20097;-22
2021/09/28 07:01:03;;;;;;;9.57;6.68;;;;;;;19.85;54.44;100487.22;5090647;28;20028;-22
2021/09/28 07:03:30;;;;;;;17.20;6.70;;;;;;;19.73;55.45;100483.16;5090716;28;20082;-22
2021/09/28 07:05:56;;;;;;;11.52;6.80;;;;;;;19.57;56.07;100480.41;5090551;28;20416;-23
2021/09/28 07:08:21;;;;;;;11.32;7.05;;;;;;;19.31;57.29;100484.16;5072459;28;20047;-22
2021/09/28 07:10:47;;;;;;;10.75;6.80;;;;;;;19.53;56.30;100479.31;5090163;28;20035;-23
2021/09/28 07:13:12;;;;;;;12.07;6.30;;;;;;;19.58;55.33;100471.22;5090377;28;20028;-22
2021/09/28 07:15:38;;;;;;;9.77;6.60;;;;;;;19.54;56.04;100486.38;5090314;28;20028;-23
2021/09/28 07:18:04;;;;;;;10.75;6.72;;;;;;;20.04;54.81;100487.53;5090163;28;20027;-22
2021/09/28 07:20:30;;;;;;;12.20;6.32;;;;;;;20.15;53.93;100495.63;5090101;28;20028;-23
2021/09/28 07:22:55;;;;;;;11.80;6.50;;;;;;;19.82;54.95;100484.28;5089943;28;20403;-22
2021/09/28 07:25:20;;;;;;;11.55;6.65;;;;;;;19.84;55.80;100493.75;5089996;28;20028;-23
2021/09/28 07:27:46;;;;;;;10.52;6.00;;;;;;;19.66;56.15;100488.81;5090040;28;20042;-22
2021/09/28 07:30:12;;;;;;;12.60;6.97;;;;;;;19.83;55.25;100483.19;5072022;28;20046;-22
2021/09/28 07:32:38;;;;;;;9.38;6.80;;;;;;;20.02;55.43;100492.41;5089452;28;20134;-22
2021/09/28 07:35:05;;;;;;;11.27;7.10;;;;;;;20.20;55.25;100487.50;5090158;28;20040;-22
2021/09/28 07:37:30;;;;;;;11.50;6.72;;;;;;;20.12;56.41;100482.63;5089779;28;20038;-22
2021/09/28 07:39:57;;;;;;;12.25;7.38;;;;;;;19.89;57.90;100487.50;5090069;28;20055;-22
2021/09/28 07:42:22;;;;;;;14.13;7.45;;;;;;;20.14;56.57;100488.59;5089732;28;20028;-22
2021/09/28 07:44:48;;;;;;;15.70;7.35;;;;;;;20.61;55.08;100484.72;5089535;28;20089;-22
2021/09/28 07:47:14;;;;;;;11.80;7.38;;;;;;;20.50;54.79;100481.22;5089891;28;20035;-22
2021/09/28 07:49:40;;;;;;;10.52;6.75;;;;;;;20.47;55.42;100471.75;5071775;28;20039;-22
2021/09/28 07:52:05;;;;;;;24.15;7.78;;;;;;;20.76;54.00;100471.13;5089645;28;20051;-22
2021/09/28 07:54:33;;;;;;;15.07;7.10;;;;;;;20.83;53.75;100500.66;5089648;28;20106;-22
2021/09/28 07:56:59;;;;;;;11.05;6.85;;;;;;;20.38;54.88;100499.66;5089790;28;20044;-21
2021/09/28 07:59:24;;;;;;;17.15;7.57;;;;;;;20.32;55.12;100490.72;5089619;28;20116;-23
2021/09/28 08:01:50;;;;;;;11.43;7.35;;;;;;;20.48;54.89;100496.94;5089564;28;20035;-22
2021/09/28 08:04:19;;;;;;;13.32;7.85;;;;;;;20.14;56.47;100492.09;5089577;28;20039;-22
2021/09/28 08:06:45;;;;;;;14.95;7.32;;;;;;;20.41;55.02;100488.25;5089282;28;20035;-22
2021/09/28 08:09:10;;;;;;;12.20;6.88;;;;;;;20.78;54.37;100489.81;5089296;28;20032;-22
2021/09/28 08:11:36;;;;;;;11.43;7.88;;;;;;;20.93;53.55;100487.06;5089833;28;20449;-22
2021/09/28 08:14:01;;;;;;;11.38;7.10;;;;;;;20.84;54.23;100462.44;5089391;28;20035;-22
2021/09/28 08:16:29;;;;;;;12.30;7.35;;;;;;;20.89;54.75;100468.94;5089159;28;20414;-22
2021/09/28 08:18:54;;;;;;;11.27;7.33;;;;;;;21.00;54.00;100465.91;5088631;28;20494;-22
2021/09/28 08:21:20;;;;;;;18.17;8.57;;;;;;;21.16;53.21;100472.03;5089304;28;20036;-22
2021/09/28 08:23:46;;;;;;;11.45;7.60;;;;;;;20.79;55.04;100467.06;5089267;28;20539;-22
2021/09/28 08:29:11;;;;;;;9.70;6.43;;;;;;;21.37;53.25;100455.63;5089244;28;20097;-22
2021/09/28 08:31:44;;;;;;;12.38;6.60;;;;;;;21.49;53.04;100453.41;5089087;28;20055;-22
2021/09/28 08:34:10;;;;;;;11.57;6.57;;;;;;;21.22;53.96;100468.19;5070955;28;20477;-22
2021/09/28 08:36:36;;;;;;;14.45;7.80;;;;;;;20.79;54.62;100446.19;5088903;28;20559;-22
2021/09/28 08:39:01;;;;;;;26.73;17.58;;;;;;;21.03;54.64;100461.81;5089341;28;20028;-22
2021/09/28 08:41:27;;;;;;;9.55;6.97;;;;;;;21.28;54.12;100458.94;5089027;28;20054;-22
2021/09/28 08:43:52;;;;;;;9.35;6.25;;;;;;;20.60;55.50;100445.19;5089008;28;20407;-22
2021/09/28 08:46:18;;;;;;;15.57;7.18;;;;;;;21.23;54.05;100461.69;5088905;28;20028;-22
2021/09/28 08:48:44;;;;;;;41.88;9.65;;;;;;;21.60;53.21;100449.53;5088669;28;20035;-23
2021/09/28 08:51:10;;;;;;;42.17;10.90;;;;;;;21.16;54.46;100454.94;5088903;28;20110;-22
2021/09/28 08:53:36;;;;;;;20.50;7.35;;;;;;;20.89;54.92;100449.94;5088564;28;20197;-22
2021/09/28 08:56:02;;;;;;;8.75;6.43;;;;;;;21.15;53.93;100437.88;5088799;28;20032;-22
2021/09/28 08:58:28;;;;;;;19.80;6.88;;;;;;;21.53;53.20;100453.66;5088977;28;20032;-22
2021/09/28 09:00:53;;;;;;;20.23;8.13;;;;;;;21.56;52.83;100432.19;5088555;28;20035;-22
2021/09/28 09:03:28;;;;;;;9.48;5.88;;;;;;;21.35;53.24;100430.69;5088705;28;20035;-22
2021/09/28 09:05:55;;;;;;;24.13;7.80;;;;;;;21.36;53.56;100443.16;5088929;28;20059;-22
2021/09/28 09:08:25;;;;;;;16.60;7.28;;;;;;;21.49;54.16;100433.59;5070936;28;20035;-22
2021/09/28 09:11:02;;;;;;;8.52;5.75;;;;;;;21.27;53.69;100424.78;5088590;28;20407;-22
2021/09/28 09:13:41;;;;;;;9.50;5.80;;;;;;;21.55;52.87;100446.84;5088716;28;20028;-22
2021/09/28 09:16:07;;;;;;;10.32;5.82;;;;;;;20.90;53.66;100440.72;5088844;28;20039;-22
2021/09/28 09:18:33;;;;;;;8.32;6.15;;;;;;;21.05;54.34;100443.34;5070704;28;20098;-22
2021/09/28 09:21:03;;;;;;;7.80;6.10;;;;;;;20.96;53.69;100434.16;5088689;28;20028;-22
2021/09/28 09:23:35;;;;;;;8.73;6.28;;;;;;;21.33;52.29;100432.88;5088848;28;20032;-22
2021/09/28 09:26:27;;;;;;;8.73;6.32;;;;;;;21.13;52.94;100445.47;5088535;28;20035;-22
2021/09/28 09:28:52;;;;;;;11.52;6.57;;;;;;;20.92;53.12;100436.63;5065935;28;20544;-22
2021/09/28 09:31:29;;;;;;;12.32;6.65;;;;;;;20.41;53.26;100440.34;5089942;28;20065;-22
2021/09/28 09:33:56;;;;;;;9.73;6.03;;;;;;;20.23;54.90;100430.91;5092181;28;20024;-23
2021/09/28 09:36:22;;;;;;;12.93;7.72;;;;;;;20.61;53.45;100417.00;5074056;28;20039;-22
2021/09/28 09:38:55;;;;;;;10.63;6.22;;;;;;;20.34;53.70;100434.38;5091901;28;20036;-22
2021/09/28 09:41:28;;;;;;;17.75;9.00;;;;;;;20.20;53.16;100423.31;5092185;28;20423;-22
2021/09/28 09:44:20;;;;;;;39.75;21.73;;;;;;;20.81;51.99;100435.88;5075083;28;20085;-22
2021/09/28 09:46:46;;;;;;;146.65;80.47;;;;;;;20.83;51.22;100435.59;5068837;28;20039;-22
2021/09/28 09:49:14;;;;;;;124.55;64.55;;;;;;;20.81;52.26;100430.44;5092025;28;20031;-22
2021/09/28 09:51:47;;;;;;;16.25;9.85;;;;;;;21.00;50.02;100435.25;5092212;28;20027;-22
2021/09/28 09:54:13;;;;;;;10.52;6.55;;;;;;;21.24;50.11;100425.31;5091758;28;20063;-22
2021/09/28 09:56:49;;;;;;;8.85;6.00;;;;;;;21.31;49.21;100435.06;5091662;28;20457;-22
2021/09/28 09:59:22;;;;;;;13.80;8.82;;;;;;;21.31;48.01;100440.47;5057888;28;20035;-22
2021/09/28 10:01:47;;;;;;;14.95;8.98;;;;;;;20.99;49.25;100439.84;5092031;28;20126;-22
2021/09/28 10:04:15;;;;;;;16.60;7.80;;;;;;;21.09;49.58;100428.16;5073878;28;20062;-22
2021/09/28 10:06:40;;;;;;;14.18;7.13;;;;;;;21.14;48.26;100452.50;5091724;28;20032;-22
2021/09/28 10:09:07;;;;;;;10.50;7.55;;;;;;;20.97;49.87;100446.66;5091749;28;20047;-21
2021/09/28 10:11:36;;;;;;;10.73;6.65;;;;;;;21.33;48.17;100438.28;5091815;28;20048;-21
2021/09/28 10:14:02;;;;;;;9.98;7.55;;;;;;;21.45;49.66;100438.78;5073384;28;20115;-21
2021/09/28 10:16:37;;;;;;;10.80;6.97;;;;;;;20.86;55.38;100456.72;5091625;28;20106;-21
2021/09/28 10:19:04;;;;;;;13.55;8.40;;;;;;;20.51;57.57;100450.31;5073514;28;20097;-21
2021/09/28 10:21:41;;;;;;;13.23;8.57;;;;;;;20.26;57.93;100451.19;5091568;28;20035;-21
2021/09/28 10:24:19;;;;;;;16.17;9.40;;;;;;;19.88;59.45;100453.41;5073990;28;20509;-21
2021/09/28 10:27:07;;;;;;;;;;;;;;;19.63;60.13;100451.47;5091471;28;20499;-21
2021/09/28 10:29:52;;;;;;;11.88;9.18;;;;;;;19.39;61.09;100446.59;5082688;28;19908;-21
2021/09/28 10:32:28;;;;;;;14.77;10.45;;;;;;;19.59;60.18;100453.09;5091006;28;20036;-21
2021/09/28 10:35:05;;;;;;;14.45;10.30;;;;;;;19.27;61.13;100443.31;5090869;28;20063;-21
2021/09/28 10:37:57;;;;;;;15.82;10.15;;;;;;;19.66;59.74;100456.34;5091353;28;20097;-21
2021/09/28 10:40:22;;;;;;;15.80;11.07;;;;;;;19.45;59.57;100452.78;5091117;28;20107;-21
2021/09/28 10:42:54;;;;;;;16.40;10.82;;;;;;;19.43;61.01;100453.09;5090711;28;20107;-21
2021/09/28 10:45:40;;;;;;;17.30;10.95;;;;;;;19.39;61.26;100440.34;5090728;28;20020;-21
2021/09/28 10:48:07;;;;;;;19.23;11.77;;;;;;;19.38;61.32;100449.56;5076677;28;20047;-21
2021/09/28 10:50:36;;;;;;;18.80;11.25;;;;;;;19.54;61.32;100434.97;5090845;28;20023;-21
2021/09/28 10:53:28;;;;;;;16.85;11.05;;;;;;;19.56;61.62;100457.16;5090561;28;20038;-21
2021/09/28 10:56:13;;;;;;;16.33;12.30;;;;;;;19.47;61.86;100453.34;5085098;28;20039;-21
2021/09/28 10:59:06;;;;;;;13.68;10.50;;;;;;;19.75;60.13;100445.84;5090411;28;20035;-21
2021/09/28 11:01:32;;;;;;;18.63;10.07;;;;;;;19.91;59.84;100452.06;5090088;28;20097;-21
2021/09/28 11:04:03;;;;;;;15.85;10.25;;;;;;;19.82;60.62;100465.34;5090820;28;20119;-21
2021/09/28 11:06:45;;;;;;;16.50;10.63;;;;;;;19.72;60.26;100443.69;5090443;28;20020;-21
2021/09/28 11:09:12;;;;;;;17.02;10.80;;;;;;;19.70;60.54;100451.22;5090682;28;20028;-21
2021/09/28 11:11:39;;;;;;;18.63;10.50;;;;;;;19.55;60.89;100450.09;5090750;28;20032;-21
2021/09/28 11:14:05;;;;;;;15.27;9.80;;;;;;;19.52;60.94;100449.84;5090748;28;20058;-21
2021/09/28 11:16:53;;;;;;;14.63;10.60;;;;;;;19.92;60.43;100438.25;5090605;28;20024;-21
2021/09/28 11:19:19;;;;;;;;;;;;;;;20.46;59.20;100451.13;5091410;28;20146;-21